METAR Data
IDs: Format: Raw Decoded Include TAF

Data at: 1332 UTC 14 Dec 2019

KRUT 141256Z AUTO 14011G17KT 10SM -RA OVC055 07/06 A2957 RMK AO2 PRESFR SLP014 P0006 T00670061 $
KRUT 141156Z AUTO VRB06KT 10SM -RA OVC070 07/06 A2964 RMK AO2 SLP037 P0010 60030 70032 T00670061 10067 20044 56057 $
KRUT 141056Z AUTO 13014KT 8SM RA BKN046 BKN055 OVC070 06/06 A2968 RMK AO2 PK WND 11028/1034 SLP054 P0009 T00560056 $
KRUT 140956Z AUTO 12015G20KT 8SM RA FEW047 OVC070 06/06 A2974 RMK AO2 SLP071 P0005 T00610056 $
KRUT 140856Z AUTO 12013G19KT 10SM RA OVC070 05/05 A2981 RMK AO2 PRESFR SLP094 P0003 60006 T00500050 58062 $
KRUT 140756Z AUTO 16016G21KT 10SM -RA BKN065 OVC080 05/04 A2989 RMK AO2 SLP122 P0002 T00500044 /
KRUT 140656Z AUTO 15011G18KT 10SM -RA OVC060 04/04 A2994 RMK AO2 SLP139 P0001 T00440039 $
KRUT 140625Z AUTO 16010G18KT 10SM -RA FEW014 OVC055 04/04 A2997 RMK AO2 P0001 $
KRUT 140556Z AUTO VRB06G14KT 10SM -RA BKN014 BKN060 OVC075 04/03 A3000 RMK AO2 SLP158 P0001 60002 T00440033 10044 20033 58027 $
KRUT 140515Z AUTO 18008G14KT 140V210 10SM -RA FEW025 BKN040 OVC070 04/03 A3003 RMK AO2 P0000 $
KRUT 140456Z AUTO 20009G17KT 150V230 10SM -RA SCT015 BKN022 OVC039 04/03 A3004 RMK AO2 SLP173 P0001 T00390033 400441044 $
KRUT 140356Z AUTO 16010KT 10SM -RA SCT015 OVC022 04/03 A3008 RMK AO2 SLP186 P0000 T00390028 $
KRUT 140353Z AUTO 16009KT 130V190 10SM -RA SCT015 OVC022 04/03 A3008 RMK AO2 P0000 $
KRUT 140256Z AUTO 17009KT 10SM -RA BKN013 OVC022 03/02 A3011 RMK AO2 RAE10B53 SLP197 P0000 60000 T00330022 56022 $
KRUT 140248Z AUTO 16008KT 10SM BKN013 OVC020 04/02 A3011 RMK AO2 RAE10 P0000 $
KRUT 140210Z AUTO 19008G14KT 150V220 10SM SCT014 BKN020 OVC035 04/02 A3013 RMK AO2 RAE10 P0000 $
KRUT 140156Z AUTO 16007KT 130V220 10SM -RA SCT014 SCT020 OVC037 04/02 A3014 RMK AO2 SLP208 P0000 T00390022 $
KRUT 140056Z AUTO 14013KT 10SM -RA FEW033 BKN060 OVC070 03/02 A3017 RMK AO2 SLP221 P0000 T00330022 $
KRUT 132356Z AUTO 12015G19KT 10SM -RA SCT021 BKN043 OVC055 03/02 A3019 RMK AO2 RAE09B36UPB15E36 SLP227 P0000 60000 T00330017 10033 20017 56017 $
KRUT 132256Z AUTO 12016G21KT 10SM -RA OVC019 03/02 A3019 RMK AO2 RAB49 SLP229 P0000 T00330017 $
KRUT 132156Z AUTO 14012KT 10SM SCT021 OVC027 03/02 A3022 RMK AO2 WSHFT 2056 SLP239 T00330017 $
KRUT 132121Z AUTO 11014G23KT 10SM OVC026 03/02 A3023 RMK AO2 WSHFT 2056 $
KRUT 132056Z AUTO 13011G17KT 10SM FEW017 OVC028 03/01 A3024 RMK AO2 UPE01 SLP246 P0000 60000 T00280011 56021 $
KRUT 131956Z AUTO 10015KT 10SM UP OVC028 03/01 A3026 RMK AO2 RAE28UPB28 SLP253 P0000 T00280011 $
KRUT 131856Z AUTO 15007KT 110V180 10SM -RA OVC026 02/01 A3028 RMK AO2 UPE13RAB13 SLP259 P0000 T00170006 FZRANO $
KRUT 131756Z AUTO 12015KT 10SM UP OVC026 02/M01 A3030 RMK AO2 UPE06B52 SLP267 P0000 60000 T00221011 10022 21033 58034 FZRANO $
KRUT 131738Z AUTO 11015G21KT 10SM OVC028 02/M01 A3032 RMK AO2 UPE06 P0000 FZRANO $
KRUT 131656Z AUTO 12016KT 10SM UP FEW025 BKN030 OVC037 02/M02 A3034 RMK AO2 RAB07E56UPB56 SLP278 P0000 T00171017 FZRANO $
KRUT 131556Z AUTO 11013KT 10SM FEW024 BKN036 OVC046 02/M03 A3037 RMK AO2 SLP290 T00171028 FZRANO $
KRUT 131456Z AUTO 15008G18KT 10SM BKN037 OVC044 01/M04 A3040 RMK AO2 SLP299 T00061039 56008 FZRANO $
KRUT 131356Z AUTO 12013KT 10SM OVC033 M01/M04 A3041 RMK AO2 SLP304 T10111039 FZRANO $
KRUT 131256Z AUTO 13014KT 10SM SCT039 M02/M05 A3042 RMK AO2 SLP305 T10221050 FZRANO $
KRUT 131156Z AUTO 12015KT 10SM CLR M03/M07 A3043 RMK AO2 SLP311 T10331072 11033 21039 57008 FZRANO $
KRUT 131056Z AUTO 13010KT 10SM CLR M04/M10 A3044 RMK AO2 SLP315 T10391100 FZRANO $
KRUT 130956Z AUTO 13012G17KT 10SM CLR M04/M11 A3044 RMK AO2 SLP315 T10391111 FZRANO $
KRUT 130856Z AUTO 11013KT 10SM CLR M04/M11 A3045 RMK AO2 SLP318 T10391111 56017 FZRANO $
KRUT 130756Z AUTO 12013KT 10SM CLR M04/M11 A3047 RMK AO2 SLP324 T10391111 FZRANO $
KRUT 130656Z AUTO 11014KT 10SM CLR M04/M11 A3048 RMK AO2 SLP329 T10391111 FZRANO $
KRUT 130556Z AUTO 13013KT 10SM CLR M04/M11 A3050 RMK AO2 SLP335 T10391106 11039 21056 58022 FZRANO $
KRUT 130456Z AUTO VRB05KT 10SM CLR M04/M11 A3053 RMK AO2 SLP345 T10441106 410281078 FZRANO $
KRUT 130356Z AUTO 15006KT 10SM CLR M04/M11 A3055 RMK AO2 SLP351 T10441106 FZRANO $
KRUT 130256Z AUTO 16008KT 10SM CLR M04/M11 A3057 RMK AO2 SLP358 T10441111 58013 FZRANO $
KRUT 130156Z AUTO 12007KT 10SM CLR M06/M10 A3059 RMK AO2 SLP366 T10561100 FZRANO $